sensor_id;sensor_type;location;lat;lon;timestamp;P1;durP1;ratioP1;P2;durP2;ratioP2
29416;SDS011;28421;51.030;4.006;2022-12-29T00:02:03;3.63;;;1.90;;
29416;SDS011;28421;51.030;4.006;2022-12-29T00:04:29;2.00;;;1.80;;
29416;SDS011;28421;51.030;4.006;2022-12-29T00:06:54;1.55;;;1.45;;
29416;SDS011;28421;51.030;4.006;2022-12-29T00:09:20;4.18;;;1.92;;
29416;SDS011;28421;51.030;4.006;2022-12-29T00:11:45;2.17;;;1.75;;
29416;SDS011;28421;51.030;4.006;2022-12-29T00:14:11;4.97;;;1.90;;
29416;SDS011;28421;51.030;4.006;2022-12-29T00:16:55;1.27;;;1.08;;
29416;SDS011;28421;51.030;4.006;2022-12-29T00:19:22;3.05;;;1.48;;
29416;SDS011;28421;51.030;4.006;2022-12-29T00:22:08;2.00;;;1.58;;
29416;SDS011;28421;51.030;4.006;2022-12-29T00:24:53;3.80;;;1.55;;
29416;SDS011;28421;51.030;4.006;2022-12-29T00:27:34;3.92;;;1.75;;
29416;SDS011;28421;51.030;4.006;2022-12-29T00:30:19;3.53;;;2.33;;
29416;SDS011;28421;51.030;4.006;2022-12-29T00:33:10;1.98;;;1.55;;
29416;SDS011;28421;51.030;4.006;2022-12-29T00:36:03;2.83;;;1.60;;
29416;SDS011;28421;51.030;4.006;2022-12-29T00:38:29;2.15;;;1.35;;
29416;SDS011;28421;51.030;4.006;2022-12-29T00:41:16;3.83;;;1.17;;
29416;SDS011;28421;51.030;4.006;2022-12-29T00:44:00;2.50;;;1.00;;
29416;SDS011;28421;51.030;4.006;2022-12-29T00:46:38;3.88;;;1.13;;
29416;SDS011;28421;51.030;4.006;2022-12-29T00:49:06;1.17;;;1.08;;
29416;SDS011;28421;51.030;4.006;2022-12-29T00:51:51;1.48;;;0.82;;
29416;SDS011;28421;51.030;4.006;2022-12-29T00:54:17;7.78;;;1.63;;
29416;SDS011;28421;51.030;4.006;2022-12-29T00:56:45;4.07;;;1.27;;
29416;SDS011;28421;51.030;4.006;2022-12-29T00:59:12;0.90;;;0.80;;
29416;SDS011;28421;51.030;4.006;2022-12-29T01:01:38;4.97;;;1.40;;
29416;SDS011;28421;51.030;4.006;2022-12-29T01:04:04;4.78;;;1.67;;
29416;SDS011;28421;51.030;4.006;2022-12-29T01:06:31;7.93;;;2.60;;
29416;SDS011;28421;51.030;4.006;2022-12-29T01:08:57;3.08;;;1.30;;
29416;SDS011;28421;51.030;4.006;2022-12-29T01:11:41;6.72;;;1.13;;
29416;SDS011;28421;51.030;4.006;2022-12-29T01:14:07;2.20;;;1.50;;
29416;SDS011;28421;51.030;4.006;2022-12-29T01:16:33;1.08;;;0.88;;
29416;SDS011;28421;51.030;4.006;2022-12-29T01:18:59;5.15;;;1.50;;
29416;SDS011;28421;51.030;4.006;2022-12-29T01:21:26;4.25;;;1.20;;
29416;SDS011;28421;51.030;4.006;2022-12-29T01:23:51;5.63;;;1.02;;
29416;SDS011;28421;51.030;4.006;2022-12-29T01:26:17;1.17;;;1.13;;
29416;SDS011;28421;51.030;4.006;2022-12-29T01:28:43;6.55;;;1.20;;
29416;SDS011;28421;51.030;4.006;2022-12-29T01:31:10;1.95;;;1.00;;
29416;SDS011;28421;51.030;4.006;2022-12-29T01:33:38;2.03;;;1.08;;
29416;SDS011;28421;51.030;4.006;2022-12-29T01:36:04;1.73;;;1.00;;
29416;SDS011;28421;51.030;4.006;2022-12-29T01:38:32;4.00;;;1.23;;
29416;SDS011;28421;51.030;4.006;2022-12-29T01:40:58;3.63;;;1.20;;
29416;SDS011;28421;51.030;4.006;2022-12-29T01:46:13;8.50;;;1.25;;
29416;SDS011;28421;51.030;4.006;2022-12-29T01:48:46;4.90;;;1.00;;
29416;SDS011;28421;51.030;4.006;2022-12-29T01:51:14;4.75;;;1.92;;
29416;SDS011;28421;51.030;4.006;2022-12-29T01:53:40;3.38;;;1.05;;
29416;SDS011;28421;51.030;4.006;2022-12-29T01:56:07;5.05;;;1.55;;
29416;SDS011;28421;51.030;4.006;2022-12-29T01:58:41;5.03;;;1.73;;
29416;SDS011;28421;51.030;4.006;2022-12-29T02:01:11;1.27;;;1.00;;
29416;SDS011;28421;51.030;4.006;2022-12-29T02:03:37;7.15;;;1.33;;
29416;SDS011;28421;51.030;4.006;2022-12-29T02:06:04;4.45;;;1.05;;
29416;SDS011;28421;51.030;4.006;2022-12-29T02:08:49;0.90;;;0.90;;
29416;SDS011;28421;51.030;4.006;2022-12-29T02:11:17;2.45;;;1.10;;
29416;SDS011;28421;51.030;4.006;2022-12-29T02:13:43;6.00;;;1.35;;
29416;SDS011;28421;51.030;4.006;2022-12-29T02:16:26;5.07;;;0.95;;
29416;SDS011;28421;51.030;4.006;2022-12-29T02:35:37;4.72;;;1.08;;
29416;SDS011;28421;51.030;4.006;2022-12-29T02:38:14;2.30;;;1.15;;
29416;SDS011;28421;51.030;4.006;2022-12-29T02:40:55;2.38;;;1.10;;
29416;SDS011;28421;51.030;4.006;2022-12-29T02:49:45;2.28;;;1.20;;
29416;SDS011;28421;51.030;4.006;2022-12-29T02:52:28;1.30;;;0.80;;
29416;SDS011;28421;51.030;4.006;2022-12-29T02:54:59;6.18;;;1.25;;
29416;SDS011;28421;51.030;4.006;2022-12-29T02:59:58;3.75;;;0.75;;
29416;SDS011;28421;51.030;4.006;2022-12-29T03:05:42;2.78;;;1.08;;
29416;SDS011;28421;51.030;4.006;2022-12-29T03:13:12;7.93;;;1.30;;
29416;SDS011;28421;51.030;4.006;2022-12-29T03:19:11;1.77;;;1.00;;
29416;SDS011;28421;51.030;4.006;2022-12-29T03:25:03;2.60;;;0.98;;
29416;SDS011;28421;51.030;4.006;2022-12-29T03:27:35;5.22;;;1.10;;
29416;SDS011;28421;51.030;4.006;2022-12-29T03:30:05;6.38;;;1.42;;
29416;SDS011;28421;51.030;4.006;2022-12-29T03:32:33;4.68;;;1.45;;
29416;SDS011;28421;51.030;4.006;2022-12-29T03:35:02;12.35;;;1.30;;
29416;SDS011;28421;51.030;4.006;2022-12-29T03:37:30;9.25;;;1.42;;
29416;SDS011;28421;51.030;4.006;2022-12-29T03:40:01;11.45;;;2.47;;
29416;SDS011;28421;51.030;4.006;2022-12-29T03:42:29;9.10;;;1.35;;
29416;SDS011;28421;51.030;4.006;2022-12-29T03:44:57;2.53;;;0.98;;
29416;SDS011;28421;51.030;4.006;2022-12-29T03:47:23;3.38;;;1.40;;
29416;SDS011;28421;51.030;4.006;2022-12-29T03:49:50;4.00;;;2.00;;
29416;SDS011;28421;51.030;4.006;2022-12-29T03:52:16;4.85;;;1.10;;
29416;SDS011;28421;51.030;4.006;2022-12-29T03:54:43;9.05;;;1.65;;
29416;SDS011;28421;51.030;4.006;2022-12-29T03:57:10;6.50;;;1.95;;
29416;SDS011;28421;51.030;4.006;2022-12-29T04:00:06;5.50;;;1.65;;
29416;SDS011;28421;51.030;4.006;2022-12-29T04:02:40;6.18;;;1.48;;
29416;SDS011;28421;51.030;4.006;2022-12-29T04:05:06;8.77;;;1.55;;
29416;SDS011;28421;51.030;4.006;2022-12-29T04:07:32;4.95;;;1.50;;
29416;SDS011;28421;51.030;4.006;2022-12-29T04:09:58;6.00;;;2.42;;
29416;SDS011;28421;51.030;4.006;2022-12-29T04:12:26;5.53;;;1.00;;
29416;SDS011;28421;51.030;4.006;2022-12-29T04:14:51;8.13;;;1.40;;
29416;SDS011;28421;51.030;4.006;2022-12-29T04:17:18;6.60;;;1.63;;
29416;SDS011;28421;51.030;4.006;2022-12-29T04:19:46;4.60;;;2.15;;
29416;SDS011;28421;51.030;4.006;2022-12-29T04:22:11;9.55;;;2.40;;
29416;SDS011;28421;51.030;4.006;2022-12-29T04:24:37;4.78;;;1.70;;
29416;SDS011;28421;51.030;4.006;2022-12-29T04:27:03;6.18;;;1.15;;
29416;SDS011;28421;51.030;4.006;2022-12-29T04:29:43;12.68;;;1.83;;
29416;SDS011;28421;51.030;4.006;2022-12-29T04:32:24;3.92;;;1.55;;
29416;SDS011;28421;51.030;4.006;2022-12-29T04:34:52;6.60;;;2.10;;
29416;SDS011;28421;51.030;4.006;2022-12-29T04:37:18;5.22;;;1.50;;
29416;SDS011;28421;51.030;4.006;2022-12-29T04:39:43;7.50;;;1.40;;
29416;SDS011;28421;51.030;4.006;2022-12-29T04:42:09;6.25;;;1.55;;
29416;SDS011;28421;51.030;4.006;2022-12-29T04:44:34;9.63;;;1.25;;
29416;SDS011;28421;51.030;4.006;2022-12-29T04:47:32;7.72;;;1.92;;
29416;SDS011;28421;51.030;4.006;2022-12-29T04:50:19;5.53;;;1.48;;
29416;SDS011;28421;51.030;4.006;2022-12-29T04:53:03;5.15;;;1.25;;
29416;SDS011;28421;51.030;4.006;2022-12-29T04:55:31;4.60;;;1.42;;
29416;SDS011;28421;51.030;4.006;2022-12-29T04:57:56;6.15;;;1.45;;
29416;SDS011;28421;51.030;4.006;2022-12-29T05:00:23;4.03;;;1.08;;
29416;SDS011;28421;51.030;4.006;2022-12-29T05:02:48;9.55;;;1.75;;
29416;SDS011;28421;51.030;4.006;2022-12-29T05:05:14;10.70;;;1.23;;
29416;SDS011;28421;51.030;4.006;2022-12-29T05:07:44;7.45;;;1.27;;
29416;SDS011;28421;51.030;4.006;2022-12-29T05:10:09;4.30;;;1.05;;
29416;SDS011;28421;51.030;4.006;2022-12-29T05:12:36;2.95;;;1.25;;
29416;SDS011;28421;51.030;4.006;2022-12-29T05:15:03;1.35;;;0.95;;
29416;SDS011;28421;51.030;4.006;2022-12-29T05:17:29;1.88;;;0.88;;
29416;SDS011;28421;51.030;4.006;2022-12-29T05:19:55;4.88;;;1.58;;
29416;SDS011;28421;51.030;4.006;2022-12-29T05:22:21;3.92;;;1.23;;
29416;SDS011;28421;51.030;4.006;2022-12-29T05:24:46;5.43;;;1.30;;
29416;SDS011;28421;51.030;4.006;2022-12-29T05:27:12;4.20;;;1.25;;
29416;SDS011;28421;51.030;4.006;2022-12-29T05:30:13;4.10;;;1.58;;
29416;SDS011;28421;51.030;4.006;2022-12-29T05:32:39;7.38;;;2.03;;
29416;SDS011;28421;51.030;4.006;2022-12-29T05:35:06;6.22;;;1.55;;
29416;SDS011;28421;51.030;4.006;2022-12-29T05:37:32;4.65;;;1.27;;
29416;SDS011;28421;51.030;4.006;2022-12-29T05:39:58;5.65;;;1.23;;
29416;SDS011;28421;51.030;4.006;2022-12-29T05:42:24;8.55;;;2.03;;
29416;SDS011;28421;51.030;4.006;2022-12-29T05:45:04;4.78;;;1.40;;
29416;SDS011;28421;51.030;4.006;2022-12-29T05:47:51;5.15;;;1.38;;
29416;SDS011;28421;51.030;4.006;2022-12-29T05:50:28;4.15;;;1.63;;
29416;SDS011;28421;51.030;4.006;2022-12-29T05:53:07;5.80;;;2.13;;
29416;SDS011;28421;51.030;4.006;2022-12-29T05:55:33;5.45;;;1.33;;
29416;SDS011;28421;51.030;4.006;2022-12-29T05:57:59;6.18;;;1.80;;
29416;SDS011;28421;51.030;4.006;2022-12-29T06:00:25;8.23;;;1.85;;
29416;SDS011;28421;51.030;4.006;2022-12-29T06:02:51;5.90;;;1.73;;
29416;SDS011;28421;51.030;4.006;2022-12-29T06:05:17;3.55;;;2.03;;
29416;SDS011;28421;51.030;4.006;2022-12-29T06:07:43;9.57;;;1.60;;
29416;SDS011;28421;51.030;4.006;2022-12-29T06:10:10;10.93;;;1.92;;
29416;SDS011;28421;51.030;4.006;2022-12-29T06:12:56;4.15;;;1.65;;
29416;SDS011;28421;51.030;4.006;2022-12-29T06:15:21;5.75;;;1.35;;
29416;SDS011;28421;51.030;4.006;2022-12-29T06:17:49;11.68;;;1.65;;
29416;SDS011;28421;51.030;4.006;2022-12-29T06:20:14;7.80;;;1.50;;
29416;SDS011;28421;51.030;4.006;2022-12-29T06:22:40;8.77;;;1.40;;
29416;SDS011;28421;51.030;4.006;2022-12-29T06:25:06;5.10;;;1.92;;
29416;SDS011;28421;51.030;4.006;2022-12-29T06:27:33;9.82;;;1.50;;
29416;SDS011;28421;51.030;4.006;2022-12-29T06:29:59;2.55;;;1.50;;
29416;SDS011;28421;51.030;4.006;2022-12-29T06:32:25;6.95;;;2.38;;
29416;SDS011;28421;51.030;4.006;2022-12-29T06:34:53;4.82;;;1.55;;
29416;SDS011;28421;51.030;4.006;2022-12-29T06:37:18;5.10;;;1.75;;
29416;SDS011;28421;51.030;4.006;2022-12-29T06:39:44;7.90;;;1.77;;
29416;SDS011;28421;51.030;4.006;2022-12-29T06:42:13;6.72;;;1.88;;
29416;SDS011;28421;51.030;4.006;2022-12-29T06:44:41;15.80;;;2.35;;
29416;SDS011;28421;51.030;4.006;2022-12-29T06:47:08;4.85;;;1.83;;
29416;SDS011;28421;51.030;4.006;2022-12-29T06:49:34;4.22;;;2.13;;
29416;SDS011;28421;51.030;4.006;2022-12-29T06:51:59;9.75;;;1.95;;
29416;SDS011;28421;51.030;4.006;2022-12-29T06:54:25;11.18;;;2.92;;
29416;SDS011;28421;51.030;4.006;2022-12-29T06:56:51;6.78;;;1.88;;
29416;SDS011;28421;51.030;4.006;2022-12-29T06:59:16;3.97;;;1.67;;
29416;SDS011;28421;51.030;4.006;2022-12-29T07:01:42;9.48;;;1.60;;
29416;SDS011;28421;51.030;4.006;2022-12-29T07:04:07;9.73;;;1.83;;
29416;SDS011;28421;51.030;4.006;2022-12-29T07:06:33;4.88;;;2.05;;
29416;SDS011;28421;51.030;4.006;2022-12-29T07:08:58;10.13;;;1.95;;
29416;SDS011;28421;51.030;4.006;2022-12-29T07:11:23;8.10;;;2.75;;
29416;SDS011;28421;51.030;4.006;2022-12-29T07:13:49;15.95;;;3.25;;
29416;SDS011;28421;51.030;4.006;2022-12-29T07:16:15;12.70;;;2.33;;
29416;SDS011;28421;51.030;4.006;2022-12-29T07:18:41;13.98;;;2.97;;
29416;SDS011;28421;51.030;4.006;2022-12-29T07:21:07;9.27;;;1.77;;
29416;SDS011;28421;51.030;4.006;2022-12-29T07:23:32;4.72;;;2.00;;
29416;SDS011;28421;51.030;4.006;2022-12-29T07:25:59;10.73;;;1.90;;
29416;SDS011;28421;51.030;4.006;2022-12-29T07:28:36;11.98;;;2.53;;
29416;SDS011;28421;51.030;4.006;2022-12-29T07:31:03;7.75;;;2.10;;
29416;SDS011;28421;51.030;4.006;2022-12-29T07:33:30;10.30;;;2.60;;
29416;SDS011;28421;51.030;4.006;2022-12-29T07:35:56;9.40;;;2.03;;
29416;SDS011;28421;51.030;4.006;2022-12-29T07:38:21;12.63;;;2.03;;
29416;SDS011;28421;51.030;4.006;2022-12-29T07:40:47;17.02;;;3.10;;
29416;SDS011;28421;51.030;4.006;2022-12-29T07:43:12;13.27;;;2.83;;
29416;SDS011;28421;51.030;4.006;2022-12-29T07:45:45;12.95;;;2.10;;
29416;SDS011;28421;51.030;4.006;2022-12-29T07:48:11;7.90;;;2.50;;
29416;SDS011;28421;51.030;4.006;2022-12-29T07:50:36;7.22;;;2.22;;
29416;SDS011;28421;51.030;4.006;2022-12-29T07:53:02;11.10;;;2.40;;
29416;SDS011;28421;51.030;4.006;2022-12-29T07:55:28;3.10;;;1.55;;
29416;SDS011;28421;51.030;4.006;2022-12-29T07:57:54;10.00;;;2.38;;
29416;SDS011;28421;51.030;4.006;2022-12-29T08:00:21;14.27;;;3.15;;
29416;SDS011;28421;51.030;4.006;2022-12-29T08:02:47;7.00;;;2.20;;
29416;SDS011;28421;51.030;4.006;2022-12-29T08:05:12;10.57;;;2.33;;
29416;SDS011;28421;51.030;4.006;2022-12-29T08:07:38;5.95;;;1.95;;
29416;SDS011;28421;51.030;4.006;2022-12-29T08:10:04;10.35;;;2.35;;
29416;SDS011;28421;51.030;4.006;2022-12-29T08:12:30;10.88;;;2.03;;
29416;SDS011;28421;51.030;4.006;2022-12-29T08:14:55;15.27;;;3.30;;
29416;SDS011;28421;51.030;4.006;2022-12-29T08:17:21;13.02;;;2.80;;
29416;SDS011;28421;51.030;4.006;2022-12-29T08:19:46;5.38;;;1.58;;
29416;SDS011;28421;51.030;4.006;2022-12-29T08:22:13;12.77;;;2.55;;
29416;SDS011;28421;51.030;4.006;2022-12-29T08:24:39;8.35;;;1.98;;
29416;SDS011;28421;51.030;4.006;2022-12-29T08:27:04;10.68;;;1.83;;
29416;SDS011;28421;51.030;4.006;2022-12-29T08:29:30;8.60;;;1.80;;
29416;SDS011;28421;51.030;4.006;2022-12-29T08:31:55;10.93;;;2.35;;
29416;SDS011;28421;51.030;4.006;2022-12-29T08:34:21;13.25;;;2.10;;
29416;SDS011;28421;51.030;4.006;2022-12-29T08:36:46;12.40;;;2.63;;
29416;SDS011;28421;51.030;4.006;2022-12-29T08:39:12;13.10;;;2.67;;
29416;SDS011;28421;51.030;4.006;2022-12-29T08:41:37;7.35;;;1.50;;
29416;SDS011;28421;51.030;4.006;2022-12-29T08:44:03;8.27;;;2.35;;
29416;SDS011;28421;51.030;4.006;2022-12-29T08:46:28;7.65;;;2.85;;
29416;SDS011;28421;51.030;4.006;2022-12-29T08:48:54;8.93;;;3.70;;
29416;SDS011;28421;51.030;4.006;2022-12-29T08:51:19;7.85;;;2.28;;
29416;SDS011;28421;51.030;4.006;2022-12-29T08:53:44;6.25;;;1.98;;
29416;SDS011;28421;51.030;4.006;2022-12-29T08:56:10;13.07;;;2.65;;
29416;SDS011;28421;51.030;4.006;2022-12-29T08:58:45;13.40;;;2.47;;
29416;SDS011;28421;51.030;4.006;2022-12-29T09:01:11;6.90;;;2.30;;
29416;SDS011;28421;51.030;4.006;2022-12-29T09:03:37;11.13;;;3.03;;
29416;SDS011;28421;51.030;4.006;2022-12-29T09:06:02;9.90;;;3.22;;
29416;SDS011;28421;51.030;4.006;2022-12-29T09:08:28;22.42;;;3.55;;
29416;SDS011;28421;51.030;4.006;2022-12-29T09:10:53;13.65;;;2.50;;
29416;SDS011;28421;51.030;4.006;2022-12-29T09:13:19;11.43;;;2.80;;
29416;SDS011;28421;51.030;4.006;2022-12-29T09:15:45;12.45;;;2.80;;
29416;SDS011;28421;51.030;4.006;2022-12-29T09:18:10;14.52;;;3.78;;
29416;SDS011;28421;51.030;4.006;2022-12-29T09:20:36;14.63;;;2.38;;
29416;SDS011;28421;51.030;4.006;2022-12-29T09:23:02;12.05;;;3.20;;
29416;SDS011;28421;51.030;4.006;2022-12-29T09:25:28;18.52;;;3.13;;
29416;SDS011;28421;51.030;4.006;2022-12-29T09:27:54;12.23;;;2.15;;
29416;SDS011;28421;51.030;4.006;2022-12-29T09:30:20;13.50;;;2.90;;
29416;SDS011;28421;51.030;4.006;2022-12-29T09:32:47;16.52;;;3.63;;
29416;SDS011;28421;51.030;4.006;2022-12-29T09:35:13;14.30;;;2.92;;
29416;SDS011;28421;51.030;4.006;2022-12-29T09:37:40;11.63;;;3.33;;
29416;SDS011;28421;51.030;4.006;2022-12-29T09:40:06;18.20;;;1.98;;
29416;SDS011;28421;51.030;4.006;2022-12-29T09:45:13;14.40;;;2.42;;
29416;SDS011;28421;51.030;4.006;2022-12-29T09:47:44;20.58;;;3.13;;
29416;SDS011;28421;51.030;4.006;2022-12-29T09:52:50;11.15;;;2.50;;
29416;SDS011;28421;51.030;4.006;2022-12-29T09:55:24;11.00;;;2.35;;
29416;SDS011;28421;51.030;4.006;2022-12-29T09:58:15;18.75;;;3.08;;
29416;SDS011;28421;51.030;4.006;2022-12-29T10:00:49;13.38;;;2.78;;
29416;SDS011;28421;51.030;4.006;2022-12-29T10:03:20;12.88;;;2.83;;
29416;SDS011;28421;51.030;4.006;2022-12-29T10:05:50;10.38;;;2.60;;
29416;SDS011;28421;51.030;4.006;2022-12-29T10:11:15;12.32;;;2.65;;
29416;SDS011;28421;51.030;4.006;2022-12-29T10:19:37;12.05;;;3.30;;
29416;SDS011;28421;51.030;4.006;2022-12-29T10:24:58;20.40;;;3.50;;
29416;SDS011;28421;51.030;4.006;2022-12-29T10:27:27;14.68;;;3.13;;
29416;SDS011;28421;51.030;4.006;2022-12-29T10:29:57;12.98;;;3.13;;
29416;SDS011;28421;51.030;4.006;2022-12-29T10:37:52;11.57;;;2.53;;
29416;SDS011;28421;51.030;4.006;2022-12-29T10:40:36;8.65;;;2.33;;
29416;SDS011;28421;51.030;4.006;2022-12-29T10:45:55;10.27;;;2.95;;
29416;SDS011;28421;51.030;4.006;2022-12-29T10:48:25;21.42;;;2.55;;
29416;SDS011;28421;51.030;4.006;2022-12-29T10:50:56;7.85;;;2.10;;
29416;SDS011;28421;51.030;4.006;2022-12-29T10:53:25;11.38;;;2.33;;
29416;SDS011;28421;51.030;4.006;2022-12-29T10:55:55;11.70;;;3.05;;
29416;SDS011;28421;51.030;4.006;2022-12-29T10:58:21;24.25;;;4.65;;
29416;SDS011;28421;51.030;4.006;2022-12-29T11:00:49;10.45;;;2.50;;
29416;SDS011;28421;51.030;4.006;2022-12-29T11:06:03;10.90;;;2.13;;
29416;SDS011;28421;51.030;4.006;2022-12-29T11:08:33;6.80;;;3.03;;
29416;SDS011;28421;51.030;4.006;2022-12-29T11:11:02;11.20;;;2.90;;
29416;SDS011;28421;51.030;4.006;2022-12-29T11:13:34;13.75;;;2.70;;
29416;SDS011;28421;51.030;4.006;2022-12-29T11:16:26;9.55;;;2.35;;
29416;SDS011;28421;51.030;4.006;2022-12-29T11:18:56;11.25;;;2.45;;
29416;SDS011;28421;51.030;4.006;2022-12-29T11:21:32;14.48;;;2.85;;
29416;SDS011;28421;51.030;4.006;2022-12-29T11:24:05;15.43;;;3.10;;
29416;SDS011;28421;51.030;4.006;2022-12-29T11:26:44;15.50;;;2.65;;
29416;SDS011;28421;51.030;4.006;2022-12-29T11:31:42;11.30;;;2.78;;
29416;SDS011;28421;51.030;4.006;2022-12-29T11:36:46;10.48;;;2.35;;
29416;SDS011;28421;51.030;4.006;2022-12-29T11:42:22;7.32;;;2.03;;
29416;SDS011;28421;51.030;4.006;2022-12-29T11:44:57;4.43;;;1.88;;
29416;SDS011;28421;51.030;4.006;2022-12-29T11:47:30;17.13;;;2.60;;
29416;SDS011;28421;51.030;4.006;2022-12-29T11:49:58;9.07;;;1.90;;
29416;SDS011;28421;51.030;4.006;2022-12-29T11:52:28;9.20;;;2.55;;
29416;SDS011;28421;51.030;4.006;2022-12-29T11:54:58;14.90;;;2.65;;
29416;SDS011;28421;51.030;4.006;2022-12-29T11:57:26;14.75;;;2.80;;
29416;SDS011;28421;51.030;4.006;2022-12-29T11:59:52;14.95;;;2.72;;
29416;SDS011;28421;51.030;4.006;2022-12-29T12:05:14;15.75;;;3.58;;
29416;SDS011;28421;51.030;4.006;2022-12-29T12:07:56;5.65;;;1.58;;
29416;SDS011;28421;51.030;4.006;2022-12-29T12:10:34;13.13;;;3.88;;
29416;SDS011;28421;51.030;4.006;2022-12-29T12:15:57;8.27;;;2.38;;
29416;SDS011;28421;51.030;4.006;2022-12-29T12:18:49;19.85;;;2.85;;
29416;SDS011;28421;51.030;4.006;2022-12-29T12:29:59;11.68;;;2.95;;
29416;SDS011;28421;51.030;4.006;2022-12-29T12:35:22;9.65;;;2.60;;
29416;SDS011;28421;51.030;4.006;2022-12-29T12:37:55;7.20;;;1.90;;
29416;SDS011;28421;51.030;4.006;2022-12-29T12:41:24;9.13;;;1.98;;
29416;SDS011;28421;51.030;4.006;2022-12-29T12:51:34;7.97;;;1.67;;
29416;SDS011;28421;51.030;4.006;2022-12-29T13:00:18;6.00;;;1.23;;
29416;SDS011;28421;51.030;4.006;2022-12-29T13:03:05;4.82;;;1.55;;
29416;SDS011;28421;51.030;4.006;2022-12-29T13:25:37;5.90;;;2.17;;
29416;SDS011;28421;51.030;4.006;2022-12-29T13:34:01;3.88;;;1.40;;
29416;SDS011;28421;51.030;4.006;2022-12-29T13:36:58;7.35;;;1.67;;
29416;SDS011;28421;51.030;4.006;2022-12-29T13:39:28;5.22;;;1.42;;
29416;SDS011;28421;51.030;4.006;2022-12-29T13:41:59;6.70;;;1.65;;
29416;SDS011;28421;51.030;4.006;2022-12-29T13:44:34;5.43;;;1.65;;
29416;SDS011;28421;51.030;4.006;2022-12-29T13:49:45;8.43;;;1.50;;
29416;SDS011;28421;51.030;4.006;2022-12-29T13:52:19;10.68;;;2.20;;
29416;SDS011;28421;51.030;4.006;2022-12-29T13:54:58;11.00;;;2.38;;
29416;SDS011;28421;51.030;4.006;2022-12-29T13:57:47;8.20;;;1.70;;
29416;SDS011;28421;51.030;4.006;2022-12-29T14:00:14;4.80;;;1.88;;
29416;SDS011;28421;51.030;4.006;2022-12-29T14:02:51;4.40;;;1.58;;
29416;SDS011;28421;51.030;4.006;2022-12-29T14:05:42;4.40;;;1.48;;
29416;SDS011;28421;51.030;4.006;2022-12-29T14:08:14;7.72;;;1.92;;
29416;SDS011;28421;51.030;4.006;2022-12-29T14:10:50;4.35;;;1.33;;
29416;SDS011;28421;51.030;4.006;2022-12-29T14:13:20;9.43;;;2.07;;
29416;SDS011;28421;51.030;4.006;2022-12-29T14:15:52;6.47;;;1.38;;
29416;SDS011;28421;51.030;4.006;2022-12-29T14:18:23;3.45;;;1.42;;
29416;SDS011;28421;51.030;4.006;2022-12-29T14:20:52;3.65;;;1.60;;
29416;SDS011;28421;51.030;4.006;2022-12-29T14:23:28;3.58;;;1.80;;
29416;SDS011;28421;51.030;4.006;2022-12-29T14:28:32;6.13;;;1.52;;
29416;SDS011;28421;51.030;4.006;2022-12-29T14:31:01;3.08;;;1.60;;
29416;SDS011;28421;51.030;4.006;2022-12-29T14:33:32;3.03;;;1.42;;
29416;SDS011;28421;51.030;4.006;2022-12-29T14:38:50;2.80;;;2.03;;
29416;SDS011;28421;51.030;4.006;2022-12-29T14:41:29;6.75;;;1.77;;
29416;SDS011;28421;51.030;4.006;2022-12-29T14:49:20;8.55;;;1.80;;
29416;SDS011;28421;51.030;4.006;2022-12-29T14:51:48;4.03;;;1.50;;
29416;SDS011;28421;51.030;4.006;2022-12-29T14:55:00;5.43;;;1.50;;
29416;SDS011;28421;51.030;4.006;2022-12-29T14:57:13;4.78;;;1.98;;
29416;SDS011;28421;51.030;4.006;2022-12-29T15:00:22;4.55;;;2.22;;
29416;SDS011;28421;51.030;4.006;2022-12-29T15:03:11;3.72;;;1.63;;
29416;SDS011;28421;51.030;4.006;2022-12-29T15:05:46;6.90;;;1.67;;
29416;SDS011;28421;51.030;4.006;2022-12-29T15:08:18;8.45;;;2.38;;
29416;SDS011;28421;51.030;4.006;2022-12-29T15:13:21;6.68;;;1.83;;
29416;SDS011;28421;51.030;4.006;2022-12-29T15:15:50;6.18;;;1.58;;
29416;SDS011;28421;51.030;4.006;2022-12-29T15:21:01;8.38;;;2.33;;
29416;SDS011;28421;51.030;4.006;2022-12-29T15:23:30;13.93;;;2.65;;
29416;SDS011;28421;51.030;4.006;2022-12-29T15:26:01;9.45;;;2.67;;
29416;SDS011;28421;51.030;4.006;2022-12-29T15:29:02;8.77;;;2.55;;
29416;SDS011;28421;51.030;4.006;2022-12-29T15:31:22;5.50;;;1.92;;
29416;SDS011;28421;51.030;4.006;2022-12-29T15:33:50;8.35;;;3.17;;
29416;SDS011;28421;51.030;4.006;2022-12-29T15:36:19;11.38;;;2.78;;
29416;SDS011;28421;51.030;4.006;2022-12-29T15:38:48;14.80;;;3.00;;
29416;SDS011;28421;51.030;4.006;2022-12-29T15:46:40;13.88;;;2.25;;
29416;SDS011;28421;51.030;4.006;2022-12-29T15:49:11;6.07;;;2.47;;
29416;SDS011;28421;51.030;4.006;2022-12-29T15:51:39;13.27;;;3.17;;
29416;SDS011;28421;51.030;4.006;2022-12-29T15:54:05;4.82;;;2.60;;
29416;SDS011;28421;51.030;4.006;2022-12-29T15:56:39;18.20;;;5.13;;
29416;SDS011;28421;51.030;4.006;2022-12-29T15:59:18;13.43;;;2.35;;
29416;SDS011;28421;51.030;4.006;2022-12-29T16:01:58;15.30;;;3.92;;
29416;SDS011;28421;51.030;4.006;2022-12-29T16:04:29;9.63;;;2.97;;
29416;SDS011;28421;51.030;4.006;2022-12-29T16:07:19;12.95;;;2.45;;
29416;SDS011;28421;51.030;4.006;2022-12-29T16:09:59;10.20;;;2.17;;
29416;SDS011;28421;51.030;4.006;2022-12-29T16:12:27;18.15;;;2.63;;
29416;SDS011;28421;51.030;4.006;2022-12-29T16:14:57;11.93;;;2.30;;
29416;SDS011;28421;51.030;4.006;2022-12-29T16:17:26;8.18;;;2.45;;
29416;SDS011;28421;51.030;4.006;2022-12-29T16:19:58;7.30;;;1.90;;
29416;SDS011;28421;51.030;4.006;2022-12-29T16:22:28;11.02;;;2.55;;
29416;SDS011;28421;51.030;4.006;2022-12-29T16:25:33;9.35;;;2.90;;
29416;SDS011;28421;51.030;4.006;2022-12-29T16:28:02;10.52;;;2.72;;
29416;SDS011;28421;51.030;4.006;2022-12-29T16:30:42;10.90;;;2.42;;
29416;SDS011;28421;51.030;4.006;2022-12-29T16:33:29;17.85;;;3.55;;
29416;SDS011;28421;51.030;4.006;2022-12-29T16:36:21;14.63;;;2.63;;
29416;SDS011;28421;51.030;4.006;2022-12-29T16:38:51;16.67;;;3.88;;
29416;SDS011;28421;51.030;4.006;2022-12-29T16:41:33;10.68;;;2.97;;
29416;SDS011;28421;51.030;4.006;2022-12-29T16:44:12;13.50;;;2.55;;
29416;SDS011;28421;51.030;4.006;2022-12-29T16:49:36;13.38;;;3.70;;
29416;SDS011;28421;51.030;4.006;2022-12-29T16:54:59;13.07;;;3.25;;
29416;SDS011;28421;51.030;4.006;2022-12-29T16:57:33;15.20;;;3.13;;
29416;SDS011;28421;51.030;4.006;2022-12-29T17:00:03;6.55;;;3.05;;
29416;SDS011;28421;51.030;4.006;2022-12-29T17:02:31;19.63;;;3.42;;
29416;SDS011;28421;51.030;4.006;2022-12-29T17:04:58;15.32;;;3.83;;
29416;SDS011;28421;51.030;4.006;2022-12-29T17:07:24;12.25;;;3.15;;
29416;SDS011;28421;51.030;4.006;2022-12-29T17:09:51;20.42;;;3.42;;
29416;SDS011;28421;51.030;4.006;2022-12-29T17:12:21;13.57;;;3.78;;
29416;SDS011;28421;51.030;4.006;2022-12-29T17:15:05;13.60;;;3.22;;
29416;SDS011;28421;51.030;4.006;2022-12-29T17:20:17;13.90;;;3.47;;
29416;SDS011;28421;51.030;4.006;2022-12-29T17:22:46;17.67;;;3.03;;
29416;SDS011;28421;51.030;4.006;2022-12-29T17:25:16;14.88;;;2.90;;
29416;SDS011;28421;51.030;4.006;2022-12-29T17:27:47;9.95;;;2.88;;
29416;SDS011;28421;51.030;4.006;2022-12-29T17:30:15;8.73;;;2.95;;
29416;SDS011;28421;51.030;4.006;2022-12-29T17:32:43;14.23;;;3.58;;
29416;SDS011;28421;51.030;4.006;2022-12-29T17:35:14;16.45;;;3.60;;
29416;SDS011;28421;51.030;4.006;2022-12-29T17:37:40;18.08;;;3.90;;
29416;SDS011;28421;51.030;4.006;2022-12-29T17:40:07;10.60;;;2.97;;
29416;SDS011;28421;51.030;4.006;2022-12-29T17:42:39;11.48;;;3.17;;
29416;SDS011;28421;51.030;4.006;2022-12-29T17:45:12;14.60;;;3.28;;
29416;SDS011;28421;51.030;4.006;2022-12-29T17:47:42;17.47;;;4.20;;
29416;SDS011;28421;51.030;4.006;2022-12-29T17:50:10;16.38;;;3.92;;
29416;SDS011;28421;51.030;4.006;2022-12-29T17:52:37;17.95;;;3.80;;
29416;SDS011;28421;51.030;4.006;2022-12-29T17:55:03;18.52;;;3.22;;